Time;durP1;ratioP1;P1;durP2;ratioP2;P2;SDS_P1;SDS_P2;PMS_P1;PMS_P2;Temp;Humidity;BMP_temperature;BMP_pressure;BME280_temperature;BME280_humidity;BME280_pressure;Samples;Min_cycle;Max_cycle;Signal;HPM_P1;HPM_P2
2022/01/09 00:00:06;;;;;;;4.35;4.15;;;;;;;2.86;100.00;98421.06;4437393;32;20121;-75
2022/01/09 00:02:31;;;;;;;3.00;2.90;;;;;;;3.04;100.00;98440.72;4424749;32;21204;-71
2022/01/09 00:04:57;;;;;;;2.75;2.65;;;;;;;3.09;100.00;98446.50;4426511;32;20075;-71
2022/01/09 00:07:22;;;;;;;2.90;2.80;;;;;;;3.10;100.00;98442.12;4440031;32;20086;-73
2022/01/09 00:09:47;;;;;;;2.72;2.62;;;;;;;3.02;100.00;98424.44;4424713;32;20090;-73
2022/01/09 00:12:13;;;;;;;5.15;4.95;;;;;;;3.17;100.00;98436.50;4434766;32;20080;-73
2022/01/09 00:14:38;;;;;;;2.80;2.70;;;;;;;2.37;100.00;98305.59;4437420;32;20501;-74
2022/01/09 00:17:03;;;;;;;4.28;4.07;;;;;;;3.14;100.00;98420.31;4437003;32;20082;-71
2022/01/09 00:19:29;;;;;;;3.00;2.90;;;;;;;3.15;100.00;98422.00;4421047;32;20071;-73
2022/01/09 00:21:54;;;;;;;3.10;3.00;;;;;;;2.92;100.00;98379.25;4426524;32;20124;-74
2022/01/09 00:24:20;;;;;;;3.10;3.00;;;;;;;2.18;100.00;98264.41;4432489;32;20395;-74
2022/01/09 00:26:45;;;;;;;2.80;2.70;;;;;;;3.12;100.00;98416.97;4447203;31;20930;-72
2022/01/09 00:29:10;;;;;;;4.65;4.45;;;;;;;3.18;100.00;98416.59;4453271;31;20064;-73
2022/01/09 00:31:39;;;;;;;2.87;2.78;;;;;;;2.10;100.00;98275.19;4426508;32;20079;-73
2022/01/09 00:34:04;;;;;;;4.35;4.15;;;;;;;3.17;100.00;98413.19;4425329;32;20091;-72
2022/01/09 00:36:30;;;;;;;3.08;2.97;;;;;;;3.11;100.00;98405.78;4431252;32;20125;-71
2022/01/09 00:38:56;;;;;;;3.00;2.90;;;;;;;3.21;100.00;98413.84;4441250;32;20174;-71
2022/01/09 00:41:21;;;;;;;2.90;2.80;;;;;;;3.18;100.00;98407.06;4425768;32;20881;-71
2022/01/09 00:43:47;;;;;;;2.90;2.80;;;;;;;3.16;100.00;98403.72;4426407;32;20134;-72
2022/01/09 00:46:12;;;;;;;4.85;4.65;;;;;;;3.15;100.00;98406.44;4435540;32;20585;-70
2022/01/09 00:48:37;;;;;;;3.85;3.65;;;;;;;3.15;100.00;98407.28;4425259;32;20063;-73
2022/01/09 00:51:03;;;;;;;4.32;4.12;;;;;;;3.19;100.00;98398.38;4424345;32;20082;-71
2022/01/09 00:53:28;;;;;;;3.08;2.97;;;;;;;3.20;100.00;98399.22;4430303;32;20727;-70
2022/01/09 00:55:53;;;;;;;3.15;3.05;;;;;;;3.17;100.00;98402.81;4444384;32;20071;-73
2022/01/09 00:58:19;;;;;;;3.00;2.90;;;;;;;3.01;100.00;98360.59;4431784;32;20094;-72
2022/01/09 01:00:44;;;;;;;2.92;2.83;;;;;;;3.24;100.00;98399.87;4443192;32;20080;-72
2022/01/09 01:03:09;;;;;;;3.45;3.35;;;;;;;3.28;100.00;98406.53;4430178;32;20315;-72
2022/01/09 01:05:35;;;;;;;2.85;2.75;;;;;;;3.12;100.00;98386.69;4433112;32;20092;-73
2022/01/09 01:08:00;;;;;;;3.00;2.90;;;;;;;3.26;100.00;98404.03;4433956;32;20152;-72
2022/01/09 01:10:26;;;;;;;2.95;2.85;;;;;;;3.28;100.00;98394.41;4433151;32;20088;-71
2022/01/09 01:12:51;;;;;;;2.97;2.87;;;;;;;3.32;100.00;98398.47;4427330;32;20088;-72
2022/01/09 01:15:16;;;;;;;3.37;3.28;;;;;;;3.36;100.00;98405.16;4427591;32;20375;-71
2022/01/09 01:17:42;;;;;;;3.00;2.90;;;;;;;3.39;100.00;98396.38;4440043;32;20691;-72
2022/01/09 01:20:08;;;;;;;3.95;3.78;;;;;;;3.37;100.00;98385.25;4424193;32;20075;-71
2022/01/09 01:22:34;;;;;;;2.95;2.85;;;;;;;3.49;100.00;98396.62;4423633;32;20684;-72
2022/01/09 01:25:00;;;;;;;3.00;2.90;;;;;;;3.48;100.00;98401.00;4428082;32;20536;-73
2022/01/09 01:27:26;;;;;;;2.85;2.75;;;;;;;3.43;100.00;98384.91;4430393;32;20071;-72
2022/01/09 01:29:51;;;;;;;2.90;2.80;;;;;;;3.44;100.00;98381.34;4425942;32;20059;-73
2022/01/09 01:32:16;;;;;;;4.25;4.05;;;;;;;3.55;100.00;98396.28;4416811;32;20079;-71
2022/01/09 01:34:42;;;;;;;2.92;2.83;;;;;;;3.53;100.00;98396.38;4427407;32;20075;-71
2022/01/09 01:37:07;;;;;;;4.55;4.35;;;;;;;3.55;100.00;98402.31;4428493;32;20067;-71
2022/01/09 01:39:32;;;;;;;3.20;3.10;;;;;;;3.55;100.00;98409.25;4425665;32;20087;-72
2022/01/09 01:41:58;;;;;;;3.15;3.05;;;;;;;3.41;100.00;98381.56;4428248;32;20084;-70
2022/01/09 01:44:23;;;;;;;3.00;2.90;;;;;;;3.60;100.00;98408.03;4425504;32;20064;-72
2022/01/09 01:46:48;;;;;;;3.10;3.00;;;;;;;3.63;100.00;98408.78;4422823;32;20171;-71
2022/01/09 01:49:14;;;;;;;4.20;4.00;;;;;;;3.72;100.00;98414.25;4425466;32;20068;-73
2022/01/09 01:51:42;;;;;;;3.17;3.08;;;;;;;3.76;100.00;98418.31;4426757;32;20637;-72
2022/01/09 01:54:11;;;;;;;4.30;4.10;;;;;;;3.91;100.00;98421.75;4424293;32;20168;-72
2022/01/09 01:56:37;;;;;;;2.90;2.80;;;;;;;3.76;100.00;98397.56;4431090;32;20497;-72
2022/01/09 01:59:02;;;;;;;4.35;4.15;;;;;;;4.19;100.00;98440.81;4425568;32;20083;-70
2022/01/09 02:01:28;;;;;;;3.05;2.95;;;;;;;4.45;100.00;98453.91;4427280;32;20185;-73
2022/01/09 02:03:53;;;;;;;3.17;3.08;;;;;;;4.56;100.00;98456.66;4426127;32;20646;-72
2022/01/09 02:06:18;;;;;;;3.42;3.33;;;;;;;4.70;100.00;98441.00;4422532;32;20361;-70
2022/01/09 02:08:44;;;;;;;3.20;3.10;;;;;;;4.76;100.00;98473.56;4425881;32;20606;-72
2022/01/09 02:11:12;;;;;;;4.85;4.65;;;;;;;4.65;100.00;98479.47;4426521;32;20129;-70
2022/01/09 02:13:44;;;;;;;3.20;3.10;;;;;;;4.66;100.00;98488.09;4427685;32;20205;-71
2022/01/09 02:16:16;;;;;;;4.78;4.57;;;;;;;4.51;100.00;98508.91;4426994;32;20082;-71
2022/01/09 02:18:42;;;;;;;3.00;2.90;;;;;;;4.35;100.00;98498.63;4428393;32;20700;-72
2022/01/09 02:21:10;;;;;;;5.30;5.10;;;;;;;4.37;100.00;98516.69;4422777;31;20098;-73
2022/01/09 02:23:37;;;;;;;2.90;2.80;;;;;;;4.33;100.00;98542.03;4424664;32;20064;-74
2022/01/09 02:26:02;;;;;;;4.60;4.40;;;;;;;3.44;100.00;98411.66;4425432;31;20163;-72
2022/01/09 02:28:29;;;;;;;3.00;2.90;;;;;;;4.19;100.00;98565.41;4428517;32;20083;-73
2022/01/09 02:30:54;;;;;;;3.00;2.90;;;;;;;4.03;100.00;98606.16;4426344;32;20189;-70
2022/01/09 02:33:20;;;;;;;3.50;3.40;;;;;;;3.92;100.00;98615.41;4426093;32;21066;-71
2022/01/09 02:35:49;;;;;;;2.80;2.70;;;;;;;3.64;100.00;98587.66;4421954;32;20072;-71
2022/01/09 02:38:14;;;;;;;4.75;4.55;;;;;;;3.59;100.00;98582.75;4425978;32;20094;-72
2022/01/09 02:40:39;;;;;;;2.80;2.70;;;;;;;3.71;100.00;98616.66;4428341;32;20072;-71
2022/01/09 02:43:05;;;;;;;4.30;4.10;;;;;;;3.75;100.00;98629.37;4424303;32;20056;-71
2022/01/09 02:45:30;;;;;;;2.70;2.60;;;;;;;3.76;100.00;98625.84;4425689;32;20129;-72
2022/01/09 02:47:57;;;;;;;2.80;2.70;;;;;;;3.83;100.00;98647.09;4426658;32;20064;-74
2022/01/09 02:52:55;;;;;;;2.87;2.78;;;;;;;3.90;100.00;98661.38;4443199;32;20084;-71
2022/01/09 02:55:21;;;;;;;4.05;3.85;;;;;;;3.91;100.00;98663.06;4424354;32;20095;-70
2022/01/09 02:57:48;;;;;;;2.83;2.72;;;;;;;3.93;100.00;98658.63;4432703;32;20163;-72
2022/01/09 03:00:20;;;;;;;4.35;4.15;;;;;;;3.98;100.00;98677.34;4424949;32;20084;-72
2022/01/09 03:02:46;;;;;;;3.00;2.90;;;;;;;3.96;100.00;98676.59;4434385;32;20099;-71
2022/01/09 03:05:11;;;;;;;4.75;4.55;;;;;;;3.95;100.00;98667.16;4426654;32;20102;-73
2022/01/09 03:07:37;;;;;;;2.90;2.80;;;;;;;4.02;100.00;98667.63;4426643;32;20090;-71
2022/01/09 03:10:03;;;;;;;4.50;4.30;;;;;;;4.10;100.00;98686.19;4427655;32;20128;-71
2022/01/09 03:12:29;;;;;;;3.35;3.25;;;;;;;4.09;100.00;98691.47;4444670;32;20120;-72
2022/01/09 03:14:54;;;;;;;2.97;2.87;;;;;;;4.09;100.00;98713.09;4430984;31;20068;-72
2022/01/09 03:17:20;;;;;;;2.90;2.80;;;;;;;4.12;100.00;98735.44;4427477;32;20133;-71
2022/01/09 03:19:45;;;;;;;2.90;2.80;;;;;;;4.16;100.00;98739.50;4440937;32;20071;-71
2022/01/09 03:22:10;;;;;;;5.43;5.22;;;;;;;4.17;100.00;98738.59;4423762;32;20656;-71
2022/01/09 03:24:36;;;;;;;2.80;2.70;;;;;;;4.23;100.00;98727.00;4429008;32;20083;-70
2022/01/09 03:27:02;;;;;;;3.97;3.80;;;;;;;4.25;100.00;98744.19;4421722;32;20079;-72
2022/01/09 03:29:28;;;;;;;2.90;2.80;;;;;;;4.26;100.00;98751.03;4432181;32;20842;-71
2022/01/09 03:31:53;;;;;;;3.00;2.90;;;;;;;3.97;100.00;98717.22;4423228;32;20076;-70
2022/01/09 03:34:18;;;;;;;3.65;3.55;;;;;;;4.16;100.00;98739.50;4426663;32;20060;-70
2022/01/09 03:36:44;;;;;;;3.00;2.90;;;;;;;4.23;100.00;98769.41;4446152;32;20074;-71
2022/01/09 03:39:09;;;;;;;4.45;4.25;;;;;;;4.22;100.00;98772.09;4428076;32;20068;-72
2022/01/09 03:41:35;;;;;;;2.90;2.80;;;;;;;4.19;100.00;98773.94;4445273;32;20878;-71
2022/01/09 03:44:00;;;;;;;3.05;2.95;;;;;;;4.05;100.00;98758.31;4423895;32;20087;-71
2022/01/09 03:46:25;;;;;;;2.85;2.75;;;;;;;4.18;100.00;98789.59;4427929;32;20594;-72
2022/01/09 03:48:51;;;;;;;2.90;2.80;;;;;;;4.12;100.00;98789.94;4431007;32;20574;-71
2022/01/09 03:51:17;;;;;;;3.70;3.60;;;;;;;4.07;100.00;98799.72;4427236;32;20148;-71
2022/01/09 03:53:42;;;;;;;2.90;2.80;;;;;;;4.07;100.00;98813.56;4432647;32;20124;-71
2022/01/09 03:56:08;;;;;;;4.37;4.18;;;;;;;4.07;100.00;98812.72;4425724;32;20526;-72
2022/01/09 03:58:35;;;;;;;3.00;2.90;;;;;;;4.07;100.00;98823.94;4428350;32;20087;-73
2022/01/09 04:01:01;;;;;;;3.20;3.10;;;;;;;3.94;100.00;98804.78;4432288;32;20063;-70
2022/01/09 04:03:27;;;;;;;3.00;2.90;;;;;;;4.15;100.00;98831.28;4426066;32;20206;-70
2022/01/09 04:05:52;;;;;;;3.10;3.00;;;;;;;4.22;100.00;98843.00;4430329;32;20577;-72
2022/01/09 04:08:18;;;;;;;15.38;14.65;;;;;;;4.19;100.00;98846.62;4404290;32;20667;-72
2022/01/09 04:10:44;;;;;;;3.10;3.00;;;;;;;4.37;100.00;98843.91;4377972;32;20098;-71
2022/01/09 04:13:13;;;;;;;2.97;2.87;;;;;;;4.40;100.00;98854.97;4429259;32;20060;-71
2022/01/09 04:15:38;;;;;;;3.20;3.10;;;;;;;3.90;100.00;98766.94;4431887;31;20683;-71
2022/01/09 04:18:04;;;;;;;4.72;4.53;;;;;;;4.50;100.00;98863.06;4422882;31;20071;-72
2022/01/09 04:20:30;;;;;;;2.90;2.80;;;;;;;4.53;100.00;98873.31;4443180;32;20071;-72
2022/01/09 04:22:57;;;;;;;2.90;2.80;;;;;;;4.51;100.00;98875.16;4442802;32;20067;-72
2022/01/09 04:25:23;;;;;;;3.10;3.00;;;;;;;4.54;100.00;98903.53;4429562;32;20828;-72
2022/01/09 04:27:49;;;;;;;3.17;3.08;;;;;;;4.54;100.00;98906.13;4436732;32;20572;-71
2022/01/09 04:30:14;;;;;;;4.28;4.07;;;;;;;4.58;100.00;98906.81;4426717;32;20083;-71
2022/01/09 04:32:40;;;;;;;3.25;3.15;;;;;;;4.08;100.00;98837.75;4439804;32;20102;-70
2022/01/09 04:35:06;;;;;;;4.87;4.68;;;;;;;4.59;100.00;98911.06;4455015;32;20580;-70
2022/01/09 04:37:34;;;;;;;3.15;3.05;;;;;;;4.53;100.00;98917.47;4429933;32;20190;-72
2022/01/09 04:40:00;;;;;;;2.97;2.87;;;;;;;4.55;100.00;98927.75;4430623;32;20071;-71
2022/01/09 04:42:37;;;;;;;3.10;3.00;;;;;;;4.52;100.00;98926.16;4424520;32;20119;-73
2022/01/09 04:45:04;;;;;;;4.20;4.00;;;;;;;4.59;100.00;98953.50;4444671;32;20473;-71
2022/01/09 04:47:30;;;;;;;3.10;3.00;;;;;;;4.63;100.00;98961.09;4444027;32;20071;-71
2022/01/09 04:49:56;;;;;;;2.90;2.80;;;;;;;4.70;100.00;98965.88;4429653;32;20680;-71
2022/01/09 04:52:26;;;;;;;3.30;3.20;;;;;;;4.52;100.00;98954.75;4426863;32;20090;-70
2022/01/09 04:54:52;;;;;;;2.83;2.72;;;;;;;4.55;100.00;98956.31;4442328;32;20064;-71
2022/01/09 04:57:17;;;;;;;3.87;3.75;;;;;;;4.05;100.00;98897.63;4431258;32;20087;-70
2022/01/09 04:59:42;;;;;;;2.83;2.72;;;;;;;4.49;100.00;98987.84;4426067;32;20091;-70
2022/01/09 05:02:08;;;;;;;4.72;4.53;;;;;;;3.48;100.00;98836.63;4426878;32;20673;-71
2022/01/09 05:04:33;;;;;;;3.00;2.90;;;;;;;4.56;100.00;99022.97;4431096;32;20429;-70
2022/01/09 05:06:59;;;;;;;3.62;3.53;;;;;;;4.59;100.00;99013.25;4424447;32;20166;-70
2022/01/09 05:09:24;;;;;;;3.70;3.60;;;;;;;4.15;100.00;98966.28;4442558;32;20084;-71
2022/01/09 05:11:49;;;;;;;3.55;3.45;;;;;;;4.54;100.00;99048.19;4435884;32;20585;-70
2022/01/09 05:14:15;;;;;;;5.30;5.03;;;;;;;4.23;100.00;99016.06;4428169;31;20087;-71
2022/01/09 05:16:44;;;;;;;2.83;2.72;;;;;;;4.45;100.00;99043.47;4429412;32;20068;-71
2022/01/09 05:19:17;;;;;;;4.47;4.28;;;;;;;4.40;100.00;99077.50;4429878;32;20598;-70
2022/01/09 05:21:42;;;;;;;3.00;2.90;;;;;;;4.27;100.00;99071.25;4432630;32;20087;-71
2022/01/09 05:24:08;;;;;;;4.47;4.28;;;;;;;4.31;100.00;99075.38;4426818;32;20149;-69
2022/01/09 05:26:33;;;;;;;2.97;2.87;;;;;;;4.29;100.00;99079.78;4427795;32;20712;-70
2022/01/09 05:28:59;;;;;;;2.85;2.75;;;;;;;4.31;100.00;99090.94;4423196;32;20063;-70
2022/01/09 05:31:24;;;;;;;2.80;2.70;;;;;;;4.29;100.00;99105.78;4426963;32;20071;-71
2022/01/09 05:33:49;;;;;;;2.72;2.62;;;;;;;4.34;100.00;99107.22;4428368;32;20450;-70
2022/01/09 05:36:15;;;;;;;4.75;4.55;;;;;;;4.36;100.00;99109.75;4430759;32;20064;-70
2022/01/09 05:38:40;;;;;;;27.58;3.92;;;;;;;4.38;100.00;99102.69;4426182;32;20514;-69
2022/01/09 05:41:05;;;;;;;5.03;4.82;;;;;;;4.39;100.00;99125.16;4438404;32;20063;-73
2022/01/09 05:43:32;;;;;;;2.90;2.80;;;;;;;4.35;100.00;99126.22;4429958;32;20068;-72
2022/01/09 05:45:57;;;;;;;2.80;2.70;;;;;;;4.17;99.47;99091.69;4423307;32;20661;-71
2022/01/09 05:48:22;;;;;;;2.80;2.70;;;;;;;4.38;100.00;99137.28;4428617;32;20189;-71
2022/01/09 05:50:48;;;;;;;2.87;2.78;;;;;;;4.26;100.00;99144.91;4426974;32;20514;-70
2022/01/09 05:53:13;;;;;;;4.85;4.65;;;;;;;4.39;99.98;99154.56;4426574;32;20087;-72
2022/01/09 05:55:38;;;;;;;2.95;2.85;;;;;;;4.38;99.14;99157.25;4433563;32;20064;-70
2022/01/09 05:58:04;;;;;;;5.47;5.18;;;;;;;4.40;99.47;99143.25;4421371;32;20086;-70
2022/01/09 06:00:29;;;;;;;3.10;3.00;;;;;;;4.35;97.67;99160.84;4429455;32;20083;-70
2022/01/09 06:02:54;;;;;;;2.75;2.65;;;;;;;4.48;97.72;99173.19;4420820;32;20463;-70
2022/01/09 06:05:20;;;;;;;2.90;2.80;;;;;;;4.44;97.79;99203.69;4424299;32;20848;-71
2022/01/09 06:07:45;;;;;;;2.90;2.80;;;;;;;4.38;96.66;99178.03;4429623;32;20433;-71
2022/01/09 06:10:11;;;;;;;3.00;2.90;;;;;;;4.47;96.28;99185.34;4421241;32;20132;-71
2022/01/09 06:12:36;;;;;;;2.80;2.70;;;;;;;4.35;96.54;99194.59;4431164;32;20095;-71
2022/01/09 06:15:02;;;;;;;4.32;4.12;;;;;;;4.29;97.15;99192.31;4424242;32;20087;-71
2022/01/09 06:17:27;;;;;;;2.90;2.80;;;;;;;4.30;96.45;99206.97;4441939;32;20068;-73
2022/01/09 06:19:53;;;;;;;3.00;2.90;;;;;;;4.29;96.75;99207.03;4423845;32;20463;-71
2022/01/09 06:22:18;;;;;;;3.75;3.65;;;;;;;4.28;96.86;99214.00;4423162;32;20347;-70
2022/01/09 06:24:50;;;;;;;2.90;2.80;;;;;;;4.30;95.31;99206.16;4432755;32;20068;-70
2022/01/09 06:27:16;;;;;;;3.60;3.50;;;;;;;4.34;94.95;99223.25;4424907;32;20064;-71
2022/01/09 06:29:41;;;;;;;6.25;3.35;;;;;;;4.19;94.46;99210.13;4427211;32;20155;-71
2022/01/09 06:32:07;;;;;;;4.55;4.35;;;;;;;3.66;94.19;99127.13;4428748;32;20063;-72
2022/01/09 06:34:32;;;;;;;3.30;3.20;;;;;;;4.22;94.80;99229.06;4434633;32;20115;-73
2022/01/09 06:36:58;;;;;;;3.00;2.90;;;;;;;4.25;94.62;99234.94;4430988;32;20074;-70
2022/01/09 06:39:24;;;;;;;2.90;2.80;;;;;;;3.63;95.09;99158.38;4446415;32;20085;-71
2022/01/09 06:41:50;;;;;;;3.10;3.00;;;;;;;4.22;94.98;99275.78;4429928;32;20072;-71
2022/01/09 06:44:15;;;;;;;4.35;4.15;;;;;;;4.08;95.49;99242.72;4428091;32;20064;-71
2022/01/09 06:46:41;;;;;;;2.87;2.78;;;;;;;4.17;95.00;99250.06;4429494;32;20505;-70
2022/01/09 06:49:07;;;;;;;4.30;4.10;;;;;;;4.22;95.30;99275.78;4425025;32;20081;-71
2022/01/09 06:51:32;;;;;;;2.90;2.80;;;;;;;4.13;96.50;99264.94;4433285;32;20072;-71
2022/01/09 06:53:58;;;;;;;3.03;2.92;;;;;;;3.21;96.13;99118.91;4427997;32;20520;-72
2022/01/09 06:56:23;;;;;;;2.80;2.70;;;;;;;4.19;96.21;99277.63;4441183;32;20946;-70
2022/01/09 06:58:48;;;;;;;2.95;2.85;;;;;;;4.14;96.09;99289.97;4429786;32;20078;-71
2022/01/09 07:01:14;;;;;;;4.50;4.30;;;;;;;4.18;96.86;99290.69;4440445;32;20084;-71
2022/01/09 07:03:39;;;;;;;3.00;2.90;;;;;;;4.22;96.48;99297.41;4429192;32;20500;-70
2022/01/09 07:06:04;;;;;;;4.53;4.32;;;;;;;4.23;96.24;99293.91;4439728;32;20075;-72
2022/01/09 07:08:33;;;;;;;2.97;2.87;;;;;;;4.27;95.44;99299.78;4424192;32;20484;-70
2022/01/09 07:11:02;;;;;;;2.90;2.80;;;;;;;4.20;95.67;99304.44;4425082;32;20505;-70
2022/01/09 07:13:27;;;;;;;2.90;2.80;;;;;;;4.32;94.31;99306.44;4426434;32;20100;-72
2022/01/09 07:15:52;;;;;;;2.90;2.80;;;;;;;4.31;93.91;99315.16;4431815;32;20079;-71
2022/01/09 07:18:18;;;;;;;2.90;2.80;;;;;;;4.38;91.97;99328.66;4424584;32;20228;-71
2022/01/09 07:20:43;;;;;;;2.97;2.87;;;;;;;4.31;91.97;99325.53;4426077;32;20098;-71
2022/01/09 07:23:09;;;;;;;4.20;4.00;;;;;;;4.33;91.94;99335.81;4428419;32;20593;-71
2022/01/09 07:25:34;;;;;;;3.20;3.10;;;;;;;4.30;91.25;99339.41;4428051;31;20056;-72
2022/01/09 07:28:01;;;;;;;3.58;3.45;;;;;;;4.35;91.41;99350.44;4429123;31;20091;-71
2022/01/09 07:30:27;;;;;;;2.85;2.75;;;;;;;4.32;91.89;99349.75;4427686;31;20067;-71
2022/01/09 07:32:53;;;;;;;2.90;2.80;;;;;;;4.30;92.51;99356.75;4427700;31;20088;-70
2022/01/09 07:35:18;;;;;;;3.00;2.90;;;;;;;4.22;93.27;99353.69;4428821;32;20479;-71
2022/01/09 07:37:44;;;;;;;3.05;2.95;;;;;;;4.21;93.71;99368.44;4420892;32;20455;-73
2022/01/09 07:40:10;;;;;;;4.85;4.65;;;;;;;4.24;93.37;99377.84;4423285;32;20084;-73
2022/01/09 07:42:35;;;;;;;3.15;3.05;;;;;;;4.21;94.07;99376.22;4428660;32;20502;-72
2022/01/09 07:45:01;;;;;;;4.18;3.92;;;;;;;4.17;93.92;99377.28;4422335;32;20612;-70
2022/01/09 07:47:26;;;;;;;3.10;3.00;;;;;;;4.09;94.91;99372.44;4427647;32;21113;-72
2022/01/09 07:49:52;;;;;;;2.80;2.70;;;;;;;4.16;95.53;99394.59;4427330;32;20086;-71
2022/01/09 07:52:17;;;;;;;3.87;3.75;;;;;;;4.17;95.93;99395.47;4436424;32;20321;-70
2022/01/09 07:54:42;;;;;;;3.03;2.92;;;;;;;4.20;95.90;99397.91;4427830;32;20914;-71
2022/01/09 07:57:08;;;;;;;4.45;4.25;;;;;;;4.16;95.95;99409.34;4417998;32;20075;-71
2022/01/09 07:59:33;;;;;;;2.95;2.85;;;;;;;4.08;95.70;99403.69;4417318;32;20068;-72
2022/01/09 08:01:58;;;;;;;3.03;2.92;;;;;;;2.91;96.67;99263.69;4409907;32;20068;-72
2022/01/09 08:04:24;;;;;;;3.20;3.10;;;;;;;4.04;96.92;99418.53;4409252;32;20141;-74
2022/01/09 08:06:49;;;;;;;3.05;2.95;;;;;;;4.04;96.73;99425.50;4416629;32;21033;-72
2022/01/09 08:09:14;;;;;;;4.28;4.07;;;;;;;3.99;95.88;99431.75;4421845;32;20063;-72
2022/01/09 08:11:40;;;;;;;3.00;2.90;;;;;;;3.91;95.50;99412.22;4424088;32;20081;-72
2022/01/09 08:14:05;;;;;;;4.37;4.18;;;;;;;3.91;95.11;99426.06;4422076;32;20087;-73
2022/01/09 08:16:31;;;;;;;3.08;2.97;;;;;;;3.89;95.11;99430.47;4422597;32;20585;-70
2022/01/09 08:18:56;;;;;;;3.10;3.00;;;;;;;3.80;95.69;99438.66;4423745;32;20087;-71
2022/01/09 08:21:21;;;;;;;2.95;2.85;;;;;;;3.81;95.98;99442.97;4418683;32;20876;-73
2022/01/09 08:23:47;;;;;;;3.00;2.90;;;;;;;3.75;96.50;99461.41;4422970;32;20103;-72
2022/01/09 08:26:13;;;;;;;4.50;4.30;;;;;;;3.74;96.54;99457.94;4420172;32;20076;-72
2022/01/09 08:28:41;;;;;;;3.15;3.05;;;;;;;3.64;96.08;99448.03;4416269;32;20076;-71
2022/01/09 08:31:08;;;;;;;4.37;4.18;;;;;;;3.61;95.47;99449.03;4423604;32;20655;-71
2022/01/09 08:33:33;;;;;;;2.83;2.72;;;;;;;3.82;96.04;99467.97;4432164;32;20079;-72
2022/01/09 08:35:58;;;;;;;3.08;2.97;;;;;;;3.81;96.02;99474.09;4423892;32;20154;-73
2022/01/09 08:38:25;;;;;;;3.05;2.95;;;;;;;3.77;96.30;99473.38;4419935;32;20095;-72
2022/01/09 08:40:50;;;;;;;2.87;2.78;;;;;;;3.83;96.72;99484.38;4423784;32;20068;-73
2022/01/09 08:43:15;;;;;;;4.68;4.47;;;;;;;3.82;97.13;99480.97;4422325;32;20083;-71
2022/01/09 08:45:41;;;;;;;3.20;3.10;;;;;;;3.86;97.33;99487.69;4418771;32;20565;-71
2022/01/09 08:48:06;;;;;;;4.82;4.62;;;;;;;3.87;97.20;99479.00;4421805;32;20073;-71
2022/01/09 08:50:31;;;;;;;3.10;3.00;;;;;;;3.86;97.10;99482.50;4423804;32;20076;-71
2022/01/09 08:53:00;;;;;;;3.20;3.10;;;;;;;3.95;97.72;99486.47;4421988;32;20091;-71
2022/01/09 08:55:25;;;;;;;3.00;2.90;;;;;;;4.02;96.69;99492.22;4438536;32;20079;-71
2022/01/09 08:57:50;;;;;;;3.40;3.20;;;;;;;3.97;95.41;99488.06;4424065;32;20075;-72
2022/01/09 09:00:18;;;;;;;4.75;4.53;;;;;;;4.03;95.31;99491.28;4419167;32;20589;-70
2022/01/09 09:02:43;;;;;;;3.20;3.10;;;;;;;4.04;95.31;99504.22;4423156;32;20140;-72
2022/01/09 09:05:09;;;;;;;3.20;3.10;;;;;;;3.95;95.06;99482.09;4415388;32;20072;-73
2022/01/09 09:07:34;;;;;;;3.12;3.03;;;;;;;3.95;93.70;99476.91;4422663;32;20067;-70
2022/01/09 09:10:03;;;;;;;3.22;3.12;;;;;;;4.09;94.34;99507.47;4421514;32;20052;-73
2022/01/09 09:12:29;;;;;;;3.40;3.30;;;;;;;4.18;94.42;99513.97;4426693;32;20076;-71
2022/01/09 09:14:55;;;;;;;3.00;2.90;;;;;;;4.25;94.27;99517.12;4424948;32;20152;-71
2022/01/09 09:17:20;;;;;;;3.90;3.72;;;;;;;3.88;93.86;99466.87;4422930;32;20086;-70
2022/01/09 09:19:45;;;;;;;2.85;2.75;;;;;;;4.25;93.12;99519.72;4433841;32;20056;-71
2022/01/09 09:22:11;;;;;;;5.05;4.85;;;;;;;4.12;93.48;99519.44;4423985;32;20061;-72
2022/01/09 09:24:37;;;;;;;2.92;2.83;;;;;;;4.25;93.68;99535.31;4425855;32;20097;-70
2022/01/09 09:27:03;;;;;;;4.12;3.95;;;;;;;4.28;93.92;99535.19;4423446;32;20292;-71
2022/01/09 09:29:28;;;;;;;3.30;3.20;;;;;;;4.29;93.35;99545.53;4429198;32;20097;-70
2022/01/09 09:31:54;;;;;;;3.10;3.00;;;;;;;4.33;92.91;99539.28;4427099;32;20067;-71
2022/01/09 09:34:19;;;;;;;3.72;3.62;;;;;;;4.38;93.29;99549.44;4424393;32;20264;-70
2022/01/09 09:36:44;;;;;;;2.95;2.85;;;;;;;4.42;93.23;99563.16;4422537;32;20305;-71
2022/01/09 09:39:12;;;;;;;4.75;4.55;;;;;;;4.43;92.58;99559.63;4423611;32;20606;-70
2022/01/09 09:41:38;;;;;;;3.08;2.97;;;;;;;4.46;92.16;99547.34;4423406;32;20136;-70
2022/01/09 09:44:07;;;;;;;3.80;3.65;;;;;;;4.49;92.21;99561.94;4423352;32;20076;-72
2022/01/09 09:46:33;;;;;;;3.17;3.08;;;;;;;4.52;92.34;99564.41;4424263;32;20580;-71
2022/01/09 09:48:58;;;;;;;3.30;3.20;;;;;;;4.48;92.45;99562.88;4426574;32;20562;-71
2022/01/09 09:51:28;;;;;;;2.90;2.80;;;;;;;4.48;91.86;99557.66;4425280;32;21600;-70
2022/01/09 09:53:54;;;;;;;2.97;2.87;;;;;;;4.50;91.63;99572.25;4426757;32;20173;-70
2022/01/09 09:56:20;;;;;;;4.15;3.95;;;;;;;4.45;91.84;99584.63;4424468;32;20639;-71
2022/01/09 09:58:47;;;;;;;3.33;3.22;;;;;;;4.49;92.09;99591.38;4421820;32;20074;-71
2022/01/09 10:01:33;;;;;;;4.65;4.45;;;;;;;4.51;92.14;99599.09;4425547;32;20064;-71
2022/01/09 10:04:06;;;;;;;3.17;3.08;;;;;;;4.51;92.11;99610.34;4435221;32;20107;-71
2022/01/09 10:06:45;;;;;;;3.00;2.90;;;;;;;4.50;92.10;99611.22;4428641;32;20496;-71
2022/01/09 10:09:11;;;;;;;4.85;4.65;;;;;;;4.44;92.24;99624.50;4436954;32;20139;-73
2022/01/09 10:11:52;;;;;;;3.10;3.00;;;;;;;4.49;92.14;99606.97;4440305;32;20064;-71
2022/01/09 10:14:26;;;;;;;4.28;4.07;;;;;;;4.52;91.81;99601.62;4447364;32;20677;-70
2022/01/09 10:17:12;;;;;;;3.10;3.00;;;;;;;4.56;92.58;99618.75;4425300;32;20747;-68
2022/01/09 10:19:49;;;;;;;2.97;2.87;;;;;;;4.60;91.24;99622.91;4428227;32;20918;-70
2022/01/09 10:22:36;;;;;;;4.65;4.45;;;;;;;4.69;92.12;99626.00;4443020;32;20060;-70
2022/01/09 10:25:18;;;;;;;4.00;3.75;;;;;;;4.74;92.00;99632.69;4434491;32;20067;-71
2022/01/09 10:27:44;;;;;;;3.12;3.03;;;;;;;4.86;92.01;99633.03;4449503;32;20119;-70
2022/01/09 10:30:09;;;;;;;4.60;4.40;;;;;;;4.82;91.58;99645.34;4424278;32;20075;-70
2022/01/09 10:32:35;;;;;;;3.30;3.20;;;;;;;4.73;90.80;99645.72;4423333;32;20084;-72
2022/01/09 10:35:07;;;;;;;3.35;3.22;;;;;;;4.69;91.33;99652.84;4427355;32;20063;-71
2022/01/09 10:37:32;;;;;;;3.30;3.20;;;;;;;4.76;91.42;99656.00;4443155;32;20098;-70
2022/01/09 10:39:59;;;;;;;3.15;3.05;;;;;;;4.71;90.98;99653.62;4423724;32;20056;-70
2022/01/09 10:42:24;;;;;;;3.30;3.20;;;;;;;4.71;91.10;99664.03;4425849;32;20075;-71
2022/01/09 10:44:49;;;;;;;3.10;3.00;;;;;;;4.68;90.27;99661.53;4424423;32;20492;-71
2022/01/09 10:47:16;;;;;;;4.75;4.55;;;;;;;4.78;89.85;99669.78;4419787;32;20569;-69
2022/01/09 10:49:42;;;;;;;3.22;3.12;;;;;;;4.79;90.28;99674.03;4429442;32;20102;-71
2022/01/09 10:52:26;;;;;;;5.15;4.95;;;;;;;4.66;90.49;99680.72;4432646;32;20736;-72
2022/01/09 10:54:53;;;;;;;3.00;2.90;;;;;;;4.78;90.23;99682.78;4425112;32;20076;-69
2022/01/09 10:57:23;;;;;;;3.20;3.10;;;;;;;4.89;90.38;99682.28;4404750;32;20215;-70
2022/01/09 10:59:49;;;;;;;3.15;3.05;;;;;;;4.96;90.55;99684.53;4452502;32;20079;-70
2022/01/09 11:02:14;;;;;;;4.85;4.65;;;;;;;4.99;90.34;99691.34;4430079;32;20128;-70
2022/01/09 11:04:41;;;;;;;3.20;3.10;;;;;;;5.00;89.80;99693.03;4422430;32;20068;-70
2022/01/09 11:07:07;;;;;;;4.68;4.47;;;;;;;4.98;89.46;99694.88;4422704;32;20094;-71
2022/01/09 11:09:33;;;;;;;3.20;3.10;;;;;;;5.01;89.09;99699.91;4423881;32;20063;-72
2022/01/09 11:11:58;;;;;;;3.35;3.25;;;;;;;3.58;89.45;99504.44;4426038;32;20082;-71
2022/01/09 11:14:24;;;;;;;3.08;2.97;;;;;;;4.91;89.85;99688.25;4423896;32;20183;-70
2022/01/09 11:16:54;;;;;;;3.12;3.03;;;;;;;4.92;89.91;99698.59;4423319;32;20095;-72
2022/01/09 11:19:21;;;;;;;4.15;3.95;;;;;;;5.06;89.64;99694.53;4427479;32;21071;-70
2022/01/09 11:21:55;;;;;;;3.20;3.10;;;;;;;5.13;90.24;99699.38;4435550;32;20099;-70
2022/01/09 11:24:20;;;;;;;3.50;3.40;;;;;;;5.13;88.64;99699.38;4423613;32;20205;-71
2022/01/09 11:26:48;;;;;;;3.30;3.20;;;;;;;5.08;87.72;99692.72;4453239;32;20463;-70
2022/01/09 11:29:14;;;;;;;4.90;4.70;;;;;;;5.00;88.64;99706.88;4449346;32;20423;-70
2022/01/09 11:31:50;;;;;;;3.20;3.10;;;;;;;5.08;89.03;99709.16;4425497;32;20696;-71
2022/01/09 11:34:27;;;;;;;4.68;4.47;;;;;;;5.04;88.01;99710.19;4417895;32;20225;-72